Time;durP1;ratioP1;P1;durP2;ratioP2;P2;SDS_P1;SDS_P2;PMS_P1;PMS_P2;Temp;Humidity;BMP_temperature;BMP_pressure;BME280_temperature;BME280_humidity;BME280_pressure;Samples;Min_cycle;Max_cycle;Signal;HPM_P1;HPM_P2
2023/07/06 00:02:24;;;;;;;12.40;11.13;;;34.20;71.10;;;;;;4881892;29;20309;-87
2023/07/06 00:04:55;;;;;;;12.32;11.05;;;33.90;72.80;;;;;;4880461;29;20218;-88
2023/07/06 00:07:27;;;;;;;12.60;11.27;;;33.70;73.60;;;;;;4880626;29;20219;-90
2023/07/06 00:10:00;;;;;;;12.88;11.38;;;33.90;72.30;;;;;;4883785;29;20321;-88
2023/07/06 00:12:46;;;;;;;12.75;11.50;;;33.80;73.00;;;;;;4882061;29;20234;-89
2023/07/06 00:15:17;;;;;;;12.70;11.48;;;33.90;73.90;;;;;;4884681;29;20273;-91
2023/07/06 00:20:38;;;;;;;12.43;11.32;;;34.20;72.10;;;;;;4887993;29;20234;-90
2023/07/06 00:23:12;;;;;;;13.45;12.00;;;34.00;70.40;;;;;;4886027;29;20214;-90
2023/07/06 00:25:43;;;;;;;12.23;11.00;;;34.10;70.80;;;;;;4880580;29;20221;-90
2023/07/06 00:28:24;;;;;;;12.30;11.10;;;34.20;73.20;;;;;;4881684;29;20297;-89
2023/07/06 00:31:03;;;;;;;12.02;10.93;;;34.20;73.10;;;;;;4878821;29;20217;-89
2023/07/06 00:33:34;;;;;;;12.52;11.13;;;34.10;69.30;;;;;;4876325;29;20582;-88
2023/07/06 00:36:07;;;;;;;13.18;11.88;;;33.70;70.40;;;;;;4880308;29;20217;-90
2023/07/06 00:38:38;;;;;;;15.57;12.30;;;33.30;71.20;;;;;;4881526;29;20229;-89
2023/07/06 00:41:11;;;;;;;14.65;12.57;;;33.20;71.20;;;;;;4879756;29;20238;-89
2023/07/06 00:43:54;;;;;;;13.20;11.75;;;33.50;71.30;;;;;;4881001;29;20309;-87
2023/07/06 00:46:29;;;;;;;13.07;11.82;;;33.40;70.80;;;;;;4881240;29;20217;-89
2023/07/06 00:49:05;;;;;;;13.25;11.95;;;33.50;72.00;;;;;;4880977;29;20777;-92
2023/07/06 00:51:40;;;;;;;12.63;11.32;;;33.30;70.40;;;;;;4894562;29;20206;-91
2023/07/06 00:54:16;;;;;;;12.27;11.18;;;33.20;70.10;;;;;;4887363;29;20205;-95
2023/07/06 00:56:52;;;;;;;13.45;11.27;;;33.20;71.70;;;;;;4883600;29;20222;-95
2023/07/06 00:59:29;;;;;;;12.95;11.75;;;33.50;71.40;;;;;;4881294;29;20224;-88
2023/07/06 01:02:02;;;;;;;13.15;11.80;;;33.90;70.00;;;;;;4860876;29;20428;-91
2023/07/06 01:04:34;;;;;;;13.18;11.95;;;34.10;70.10;;;;;;4876434;29;20269;-90
2023/07/06 01:07:09;;;;;;;13.95;12.13;;;34.50;71.30;;;;;;4880246;29;20229;-91
2023/07/06 01:09:43;;;;;;;12.43;11.23;;;34.90;69.40;;;;;;4880099;29;20234;-91
2023/07/06 01:12:17;;;;;;;13.77;11.50;;;34.80;68.40;;;;;;4878980;29;20217;-91
2023/07/06 01:14:51;;;;;;;11.98;10.85;;;34.70;66.70;;;;;;4880214;29;20210;-91
2023/07/06 01:17:29;;;;;;;13.10;11.90;;;34.50;66.50;;;;;;4881119;29;20230;-91
2023/07/06 01:20:21;;;;;;;13.27;11.98;;;34.40;68.30;;;;;;4880778;29;20222;-92
2023/07/06 01:23:32;;;;;;;14.20;12.80;;;34.70;69.70;;;;;;4879040;29;20237;-91
2023/07/06 01:26:37;;;;;;;14.10;12.27;;;34.70;67.60;;;;;;4880437;29;20301;-90
2023/07/06 01:29:40;;;;;;;11.85;10.65;;;34.70;67.80;;;;;;4859957;29;20248;-91
2023/07/06 01:32:17;;;;;;;12.23;11.15;;;34.50;67.80;;;;;;4879660;29;20651;-89
2023/07/06 01:34:54;;;;;;;12.25;11.13;;;34.30;69.10;;;;;;4890006;29;20634;-89
2023/07/06 01:37:29;;;;;;;13.30;12.00;;;34.60;68.90;;;;;;4891492;29;20206;-89
2023/07/06 01:40:01;;;;;;;11.98;10.88;;;34.40;68.60;;;;;;4881106;29;20273;-88
2023/07/06 01:42:34;;;;;;;13.00;11.70;;;34.30;68.10;;;;;;4883760;29;20225;-87
2023/07/06 01:45:07;;;;;;;13.35;11.90;;;34.30;67.80;;;;;;4892336;29;20210;-89
2023/07/06 01:47:44;;;;;;;13.57;12.20;;;34.20;68.70;;;;;;4906868;29;20225;-92
2023/07/06 01:50:18;;;;;;;13.43;12.13;;;34.60;68.90;;;;;;4901121;29;20329;-89
2023/07/06 01:53:11;;;;;;;13.25;11.98;;;34.90;67.00;;;;;;4891820;29;20226;-88
2023/07/06 01:55:47;;;;;;;13.35;12.05;;;35.60;67.10;;;;;;4882823;29;20735;-91
2023/07/06 01:58:26;;;;;;;14.90;12.23;;;35.60;65.70;;;;;;4882581;29;20261;-91
2023/07/06 02:01:00;;;;;;;13.23;11.93;;;35.90;65.50;;;;;;4878681;29;20222;-90
2023/07/06 02:03:33;;;;;;;14.18;12.70;;;35.80;65.60;;;;;;4880701;29;20245;-88
2023/07/06 02:06:05;;;;;;;13.40;12.20;;;35.50;65.20;;;;;;4879605;29;20217;-92
2023/07/06 02:08:41;;;;;;;12.98;11.88;;;35.30;65.80;;;;;;4885390;29;20203;-90
2023/07/06 02:11:13;;;;;;;13.07;11.88;;;34.30;67.00;;;;;;4878643;29;20257;-91
2023/07/06 02:13:44;;;;;;;14.95;12.20;;;33.80;67.70;;;;;;4881261;29;20211;-90
2023/07/06 02:16:16;;;;;;;14.23;12.80;;;33.10;69.80;;;;;;4880229;29;20213;-92
2023/07/06 02:18:50;;;;;;;13.35;12.15;;;32.60;68.50;;;;;;4879927;29;20219;-91
2023/07/06 02:21:22;;;;;;;13.88;12.57;;;32.30;69.00;;;;;;4882904;29;20236;-91
2023/07/06 02:23:53;;;;;;;14.27;12.75;;;32.00;69.40;;;;;;4883460;29;20229;-91
2023/07/06 02:26:25;;;;;;;14.07;12.63;;;31.70;69.60;;;;;;4899497;29;20218;-90
2023/07/06 02:28:57;;;;;;;13.85;12.50;;;31.40;70.40;;;;;;4883880;29;20245;-90
2023/07/06 02:31:29;;;;;;;14.00;12.70;;;31.20;72.10;;;;;;4881508;29;20221;-90
2023/07/06 02:34:03;;;;;;;14.18;12.77;;;31.10;71.80;;;;;;4885996;29;20650;-90
2023/07/06 02:36:35;;;;;;;14.30;13.00;;;31.00;72.60;;;;;;4889808;29;20206;-89
2023/07/06 02:39:06;;;;;;;14.00;12.57;;;30.60;72.50;;;;;;4882190;29;20206;-89
2023/07/06 02:41:38;;;;;;;13.90;12.50;;;30.40;73.40;;;;;;4881005;29;20215;-88
2023/07/06 02:44:10;;;;;;;13.25;12.05;;;30.20;74.50;;;;;;4884804;29;20266;-89
2023/07/06 02:46:42;;;;;;;13.27;12.02;;;30.10;75.70;;;;;;4881859;29;20297;-88
2023/07/06 02:49:15;;;;;;;13.55;12.25;;;29.80;75.90;;;;;;4882151;29;20218;-89
2023/07/06 02:51:49;;;;;;;13.02;11.82;;;29.70;76.50;;;;;;4880998;29;20300;-89
2023/07/06 02:54:21;;;;;;;13.48;12.13;;;29.50;76.60;;;;;;4881940;29;20333;-88
2023/07/06 02:56:53;;;;;;;14.52;12.32;;;29.40;77.00;;;;;;4882914;29;20213;-89
2023/07/06 02:59:24;;;;;;;13.73;12.32;;;29.30;77.90;;;;;;4880913;29;20232;-90
2023/07/06 03:01:54;;;;;;;13.40;12.10;;;29.20;77.00;;;;;;4880684;29;20214;-92
2023/07/06 03:04:32;;;;;;;13.20;11.75;;;29.10;77.60;;;;;;4883085;29;20313;-87
2023/07/06 03:07:03;;;;;;;14.27;12.88;;;29.00;79.00;;;;;;4878911;29;20310;-88
2023/07/06 03:09:34;;;;;;;13.55;12.20;;;28.90;79.80;;;;;;4877753;29;20214;-86
2023/07/06 03:12:09;;;;;;;23.35;12.38;;;28.70;79.00;;;;;;4875439;29;20246;-89
2023/07/06 03:14:40;;;;;;;14.13;12.65;;;28.70;78.70;;;;;;4882176;29;20213;-88
2023/07/06 03:17:12;;;;;;;13.55;12.00;;;28.60;80.10;;;;;;4880862;29;20214;-88
2023/07/06 03:19:44;;;;;;;14.52;11.88;;;28.50;80.80;;;;;;4887840;29;20443;-89
2023/07/06 03:22:17;;;;;;;14.00;12.18;;;28.40;83.00;;;;;;4880807;29;20221;-87
2023/07/06 03:24:48;;;;;;;13.10;11.47;;;28.20;83.10;;;;;;4892575;29;20210;-89
2023/07/06 03:27:19;;;;;;;13.93;12.20;;;28.00;84.00;;;;;;4887954;29;20255;-88
2023/07/06 03:29:52;;;;;;;13.15;11.75;;;27.80;84.10;;;;;;4880419;29;20699;-87
2023/07/06 03:32:25;;;;;;;12.95;11.65;;;27.80;85.30;;;;;;4900711;29;20630;-89
2023/07/06 03:34:58;;;;;;;11.83;10.73;;;27.60;88.40;;;;;;4880750;29;20219;-88
2023/07/06 03:37:30;;;;;;;14.98;13.23;;;27.50;85.60;;;;;;4877326;29;20218;-88
2023/07/06 03:40:03;;;;;;;22.10;16.47;;;27.40;88.80;;;;;;4882116;29;20233;-89
2023/07/06 03:42:34;;;;;;;18.20;13.33;;;27.30;92.70;;;;;;4882031;29;20218;-89
2023/07/06 03:45:06;;;;;;;16.17;12.83;;;27.10;93.50;;;;;;4885580;29;20310;-89
2023/07/06 03:47:38;;;;;;;13.87;12.00;;;26.90;92.90;;;;;;4882980;29;20220;-88
2023/07/06 03:50:12;;;;;;;14.03;12.03;;;26.70;92.00;;;;;;4882265;29;20592;-88
2023/07/06 03:52:44;;;;;;;12.93;11.37;;;26.60;91.00;;;;;;4884234;29;20265;-88
2023/07/06 03:55:18;;;;;;;12.40;11.17;;;26.50;92.60;;;;;;4898951;29;20250;-88
2023/07/06 03:57:49;;;;;;;12.80;11.60;;;26.40;91.90;;;;;;4893287;29;20215;-89
2023/07/06 04:00:34;;;;;;;12.80;11.60;;;26.20;93.70;;;;;;4900549;29;20278;-89
2023/07/06 04:03:06;;;;;;;13.83;11.67;;;26.10;93.70;;;;;;4883170;29;20294;-88
2023/07/06 04:05:47;;;;;;;13.13;11.83;;;26.00;93.30;;;;;;4885452;29;20240;-88
2023/07/06 04:08:22;;;;;;;16.33;11.40;;;25.90;94.70;;;;;;4882287;29;20220;-89
2023/07/06 04:10:53;;;;;;;13.57;12.13;;;25.70;94.90;;;;;;4881993;29;20580;-87
2023/07/06 04:13:25;;;;;;;12.60;11.30;;;25.50;94.60;;;;;;4870497;29;20206;-88
2023/07/06 04:15:56;;;;;;;13.30;11.90;;;25.50;94.70;;;;;;4864100;29;20210;-88
2023/07/06 04:18:28;;;;;;;13.10;11.70;;;25.40;94.20;;;;;;4882787;29;20261;-89
2023/07/06 04:21:01;;;;;;;13.10;11.20;;;25.30;94.30;;;;;;4881220;29;20202;-87
2023/07/06 04:23:32;;;;;;;12.40;11.13;;;25.20;94.80;;;;;;4880000;29;20656;-89
2023/07/06 04:26:03;;;;;;;13.63;11.57;;;25.10;95.70;;;;;;4883846;29;20206;-89
2023/07/06 04:28:38;;;;;;;14.80;12.40;;;25.00;95.60;;;;;;4881841;29;20217;-96
2023/07/06 04:31:10;;;;;;;17.50;12.30;;;24.90;96.70;;;;;;4890085;29;20262;-88
2023/07/06 04:33:41;;;;;;;13.57;12.17;;;24.70;97.60;;;;;;4881576;29;20237;-89
2023/07/06 04:36:17;;;;;;;13.10;11.40;;;24.60;97.00;;;;;;4893496;29;20210;-88
2023/07/06 04:38:49;;;;;;;13.57;12.00;;;24.60;96.90;;;;;;4890207;29;20736;-89
2023/07/06 04:41:22;;;;;;;15.13;12.27;;;24.50;98.30;;;;;;4887302;29;20214;-87
2023/07/06 04:43:53;;;;;;;13.40;12.00;;;24.40;97.40;;;;;;4891592;29;20299;-89
2023/07/06 04:46:25;;;;;;;14.27;12.50;;;24.40;97.60;;;;;;4895122;29;20282;-88
2023/07/06 04:48:57;;;;;;;17.73;12.50;;;24.40;97.20;;;;;;4882225;29;20304;-87
2023/07/06 04:51:31;;;;;;;14.37;12.87;;;24.40;97.50;;;;;;4881185;29;20244;-87
2023/07/06 04:54:03;;;;;;;13.57;12.17;;;24.30;97.10;;;;;;4885157;29;20243;-88
2023/07/06 04:56:37;;;;;;;15.80;12.60;;;24.20;97.30;;;;;;4884808;29;20199;-88
2023/07/06 04:59:08;;;;;;;14.17;12.03;;;24.20;97.70;;;;;;4884432;29;20209;-87
2023/07/06 05:01:40;;;;;;;13.60;12.20;;;24.20;97.00;;;;;;4893022;29;20234;-88
2023/07/06 05:04:11;;;;;;;13.63;12.23;;;24.10;97.90;;;;;;4892611;29;20214;-86
2023/07/06 05:06:45;;;;;;;13.73;11.80;;;24.00;97.80;;;;;;4900075;29;20218;-88
2023/07/06 05:09:17;;;;;;;15.33;11.73;;;24.00;97.80;;;;;;4883368;29;20245;-87
2023/07/06 05:11:52;;;;;;;15.23;11.67;;;23.90;97.60;;;;;;4878999;29;20240;-88
2023/07/06 05:14:24;;;;;;;13.70;11.83;;;23.80;97.90;;;;;;4880431;29;20211;-88
2023/07/06 05:16:55;;;;;;;14.27;11.77;;;23.80;98.10;;;;;;4881726;29;20214;-88
2023/07/06 05:19:27;;;;;;;14.60;11.83;;;23.70;98.40;;;;;;4880849;29;20270;-86
2023/07/06 05:22:02;;;;;;;13.70;11.73;;;23.70;98.50;;;;;;4880317;29;20206;-88
2023/07/06 05:24:34;;;;;;;13.30;11.90;;;23.60;98.10;;;;;;4879722;29;20222;-87
2023/07/06 05:27:06;;;;;;;13.97;12.07;;;23.50;99.30;;;;;;4879377;29;20215;-88
2023/07/06 05:29:38;;;;;;;13.13;11.77;;;23.40;98.50;;;;;;4885479;29;20202;-88
2023/07/06 05:32:11;;;;;;;13.90;12.47;;;23.40;98.70;;;;;;4881229;29;20691;-88
2023/07/06 05:34:45;;;;;;;13.27;11.90;;;23.30;98.60;;;;;;4881183;29;20226;-89
2023/07/06 05:37:19;;;;;;;13.43;11.93;;;23.20;99.10;;;;;;4881532;29;20235;-89
2023/07/06 05:40:07;;;;;;;14.30;12.23;;;23.20;99.30;;;;;;4884016;29;20751;-88
2023/07/06 05:42:39;;;;;;;13.93;12.53;;;23.10;99.70;;;;;;4884368;29;20217;-88
2023/07/06 05:45:12;;;;;;;15.53;12.17;;;23.00;99.90;;;;;;4885002;29;20208;-88
2023/07/06 05:47:45;;;;;;;14.93;12.07;;;23.00;99.90;;;;;;4883808;29;20257;-87
2023/07/06 05:50:17;;;;;;;14.57;12.40;;;22.90;99.90;;;;;;4876625;29;20206;-88
2023/07/06 05:52:52;;;;;;;14.37;12.57;;;22.90;99.90;;;;;;4880754;29;20260;-88
2023/07/06 05:55:25;;;;;;;17.10;12.93;;;22.80;99.90;;;;;;4883190;29;20214;-88
2023/07/06 05:57:57;;;;;;;13.07;11.70;;;22.80;99.90;;;;;;4885818;29;20269;-87
2023/07/06 06:00:33;;;;;;;14.33;12.53;;;22.70;99.90;;;;;;4884597;29;20675;-87
2023/07/06 06:03:05;;;;;;;14.43;12.30;;;22.70;99.90;;;;;;4884953;29;20233;-88
2023/07/06 06:05:39;;;;;;;12.83;11.43;;;22.70;99.90;;;;;;4886295;29;20655;-87
2023/07/06 06:08:12;;;;;;;13.07;11.73;;;22.60;99.90;;;;;;4894307;29;20226;-88
2023/07/06 06:10:45;;;;;;;14.63;11.73;;;22.50;99.90;;;;;;4899349;29;20214;-91
2023/07/06 06:13:20;;;;;;;13.37;11.97;;;22.50;99.90;;;;;;4902571;29;20233;-87
2023/07/06 06:15:52;;;;;;;15.53;12.00;;;22.40;99.90;;;;;;4893677;29;20210;-87
2023/07/06 06:18:25;;;;;;;13.93;12.47;;;22.40;99.90;;;;;;4886300;29;20210;-88
2023/07/06 06:20:58;;;;;;;12.53;11.27;;;22.30;99.90;;;;;;4885376;29;20214;-87
2023/07/06 06:23:32;;;;;;;14.67;11.77;;;22.30;99.90;;;;;;4889596;29;20210;-87
2023/07/06 06:26:04;;;;;;;14.37;12.27;;;22.20;99.90;;;;;;4892795;29;20217;-88
2023/07/06 06:28:35;;;;;;;14.23;12.07;;;22.10;99.90;;;;;;4883541;29;20738;-87
2023/07/06 06:31:07;;;;;;;14.73;11.80;;;22.10;99.90;;;;;;4880637;29;20209;-89
2023/07/06 06:33:39;;;;;;;13.67;11.67;;;22.00;99.90;;;;;;4882003;29;20218;-88
2023/07/06 06:36:11;;;;;;;13.47;12.07;;;22.00;99.90;;;;;;4896528;29;20305;-88
2023/07/06 06:38:45;;;;;;;12.97;11.53;;;21.90;99.90;;;;;;4874475;29;20218;-87
2023/07/06 06:41:16;;;;;;;14.17;11.93;;;21.90;99.90;;;;;;4880251;29;20690;-88
2023/07/06 06:43:48;;;;;;;13.93;12.03;;;21.80;99.90;;;;;;4876624;29;20222;-86
2023/07/06 06:46:19;;;;;;;15.47;13.20;;;21.80;99.90;;;;;;4869873;29;20214;-88
2023/07/06 06:48:51;;;;;;;13.77;12.30;;;21.70;99.90;;;;;;4878043;29;20203;-87
2023/07/06 06:51:23;;;;;;;14.73;12.00;;;21.70;99.90;;;;;;4869077;29;20207;-87
2023/07/06 06:53:57;;;;;;;15.73;12.87;;;21.60;99.90;;;;;;4878280;29;20218;-88
2023/07/06 06:56:29;;;;;;;14.63;12.17;;;21.50;99.90;;;;;;4896704;29;20260;-87
2023/07/06 06:59:00;;;;;;;14.13;12.60;;;21.50;99.90;;;;;;4888578;29;20208;-86
2023/07/06 07:01:32;;;;;;;16.00;13.03;;;21.50;99.90;;;;;;4880828;29;20246;-87
2023/07/06 07:04:04;;;;;;;15.17;13.03;;;21.50;99.90;;;;;;4880994;29;20234;-87
2023/07/06 07:06:36;;;;;;;13.27;11.97;;;21.40;99.90;;;;;;4879908;29;20288;-88
2023/07/06 07:09:10;;;;;;;13.97;12.57;;;21.30;99.90;;;;;;4881000;29;20207;-88
2023/07/06 07:11:42;;;;;;;16.60;12.83;;;21.30;99.90;;;;;;4888714;29;20291;-88
2023/07/06 07:14:15;;;;;;;14.13;12.50;;;21.20;99.90;;;;;;4881686;29;20253;-88
2023/07/06 07:16:46;;;;;;;13.47;12.00;;;21.20;99.90;;;;;;4887684;29;20202;-88
2023/07/06 07:19:19;;;;;;;14.40;12.73;;;21.10;99.90;;;;;;4880993;29;20245;-87
2023/07/06 07:21:51;;;;;;;14.10;11.90;;;21.10;99.90;;;;;;4875376;29;20203;-87
2023/07/06 07:24:24;;;;;;;14.20;12.40;;;21.00;99.90;;;;;;4867027;29;20281;-86
2023/07/06 07:26:55;;;;;;;14.70;13.10;;;20.90;99.90;;;;;;4878554;29;20255;-95
2023/07/06 07:29:28;;;;;;;16.10;13.30;;;20.90;99.90;;;;;;4879770;29;20279;-89
2023/07/06 07:31:59;;;;;;;15.03;12.50;;;20.80;99.90;;;;;;4880691;29;20220;-89
2023/07/06 07:34:30;;;;;;;13.87;12.50;;;20.80;99.90;;;;;;4877723;29;20206;-88
2023/07/06 07:37:02;;;;;;;13.40;12.00;;;20.80;99.90;;;;;;4875678;29;20210;-90
2023/07/06 07:39:36;;;;;;;15.73;12.80;;;20.70;99.90;;;;;;4875252;29;20217;-89
2023/07/06 07:42:08;;;;;;;14.53;12.90;;;20.60;99.90;;;;;;4880913;29;20218;-87
2023/07/06 07:44:40;;;;;;;15.17;12.97;;;20.60;99.90;;;;;;4867358;29;20205;-89
2023/07/06 07:47:11;;;;;;;13.73;12.20;;;20.60;99.90;;;;;;4876665;29;20234;-89
2023/07/06 07:49:43;;;;;;;14.33;12.50;;;20.50;99.90;;;;;;4872016;29;20310;-89
2023/07/06 07:52:15;;;;;;;16.80;13.20;;;20.50;99.90;;;;;;4862533;29;20226;-89
2023/07/06 07:54:51;;;;;;;15.40;12.77;;;20.40;99.90;;;;;;4878957;29;20257;-89
2023/07/06 07:57:22;;;;;;;16.90;13.20;;;20.30;99.90;;;;;;4881594;29;20218;-89
2023/07/06 07:59:54;;;;;;;16.73;13.87;;;20.30;99.90;;;;;;4891358;29;20301;-89
2023/07/06 08:02:26;;;;;;;15.20;13.60;;;20.30;99.90;;;;;;4865653;29;20664;-90
2023/07/06 08:05:01;;;;;;;15.40;13.27;;;20.20;99.90;;;;;;4879549;29;20226;-89
2023/07/06 08:07:33;;;;;;;14.03;12.63;;;20.20;99.90;;;;;;4882473;29;20289;-88
2023/07/06 08:10:08;;;;;;;14.70;12.23;;;20.10;99.90;;;;;;4881478;29;20694;-90
2023/07/06 08:12:40;;;;;;;15.07;12.83;;;20.10;99.90;;;;;;4889676;29;20239;-89
2023/07/06 08:15:13;;;;;;;15.13;12.60;;;20.10;99.90;;;;;;4892350;29;20572;-89
2023/07/06 08:17:45;;;;;;;19.97;13.37;;;20.00;99.90;;;;;;4890601;29;20297;-89
2023/07/06 08:20:17;;;;;;;17.43;13.60;;;20.00;99.90;;;;;;4882698;29;20671;-88
2023/07/06 08:23:11;;;;;;;16.33;13.30;;;19.90;99.90;;;;;;4896391;29;20206;-89
2023/07/06 08:25:45;;;;;;;15.20;13.17;;;19.90;99.90;;;;;;4904028;29;20195;-89
2023/07/06 08:28:17;;;;;;;18.47;13.67;;;19.90;99.90;;;;;;4906213;29;20273;-88
2023/07/06 08:30:48;;;;;;;15.97;12.60;;;19.90;99.90;;;;;;4890418;29;20206;-89
2023/07/06 08:33:22;;;;;;;14.20;12.73;;;19.80;99.90;;;;;;4884424;29;20242;-88
2023/07/06 08:35:53;;;;;;;14.07;12.70;;;19.80;99.90;;;;;;4887759;29;20213;-89
2023/07/06 08:38:25;;;;;;;14.27;12.30;;;19.80;99.90;;;;;;4883435;29;20211;-88
2023/07/06 08:41:03;;;;;;;13.57;12.23;;;19.70;99.90;;;;;;4883188;29;20310;-89
2023/07/06 08:43:36;;;;;;;18.97;13.37;;;19.60;99.90;;;;;;4889874;29;20304;-89
2023/07/06 08:46:08;;;;;;;14.77;12.27;;;19.70;99.90;;;;;;4884743;29;20206;-88
2023/07/06 08:48:41;;;;;;;15.13;12.37;;;19.60;99.90;;;;;;4890429;29;20260;-89
2023/07/06 08:51:20;;;;;;;14.97;12.73;;;19.60;99.90;;;;;;4911200;29;20301;-86
2023/07/06 08:53:55;;;;;;;13.73;12.33;;;19.50;99.90;;;;;;4881971;29;20345;-88
2023/07/06 08:56:34;;;;;;;14.63;12.50;;;19.60;99.90;;;;;;4881993;29;20225;-89
2023/07/06 08:59:13;;;;;;;14.30;12.40;;;19.50;99.90;;;;;;4883543;29;20218;-89
2023/07/06 09:01:45;;;;;;;19.13;12.03;;;19.50;99.90;;;;;;4879410;29;20258;-88
2023/07/06 09:04:19;;;;;;;17.47;11.93;;;19.50;99.90;;;;;;4874018;29;20224;-89
2023/07/06 09:06:54;;;;;;;13.90;12.50;;;19.50;99.90;;;;;;4880859;29;20218;-89
2023/07/06 09:09:26;;;;;;;15.80;12.37;;;19.50;99.90;;;;;;4880530;29;20289;-89
2023/07/06 09:12:01;;;;;;;12.50;11.20;;;19.40;99.90;;;;;;4878542;29;20217;-89
2023/07/06 09:14:32;;;;;;;14.77;11.40;;;19.40;99.90;;;;;;4879444;29;20232;-89
2023/07/06 09:17:06;;;;;;;12.80;11.37;;;19.40;99.90;;;;;;4890244;29;20202;-89
2023/07/06 09:19:40;;;;;;;13.63;11.20;;;19.30;99.90;;;;;;4884352;29;20209;-89
2023/07/06 09:22:11;;;;;;;15.83;12.00;;;19.30;99.90;;;;;;4896529;29;20221;-89
2023/07/06 09:24:47;;;;;;;15.33;12.10;;;19.30;99.90;;;;;;4879185;29;20218;-90
2023/07/06 09:27:26;;;;;;;15.07;11.30;;;19.30;99.90;;;;;;4883695;29;20685;-89
2023/07/06 09:30:02;;;;;;;19.70;12.13;;;19.20;99.90;;;;;;4878313;29;20226;-89
2023/07/06 09:32:34;;;;;;;13.43;11.17;;;19.10;99.90;;;;;;4882629;29;20241;-89
2023/07/06 09:35:08;;;;;;;15.47;11.83;;;19.10;99.90;;;;;;4879830;29;20289;-90
2023/07/06 09:37:47;;;;;;;13.50;11.43;;;19.10;99.90;;;;;;4861234;29;20218;-89
2023/07/06 09:40:19;;;;;;;15.07;11.97;;;19.00;99.90;;;;;;4873828;29;20214;-89
2023/07/06 09:42:58;;;;;;;18.13;11.17;;;19.00;99.90;;;;;;4884283;29;20224;-89
2023/07/06 09:45:31;;;;;;;14.33;11.10;;;18.90;99.90;;;;;;4890412;29;20360;-88
2023/07/06 09:48:15;;;;;;;13.20;11.27;;;18.80;99.90;;;;;;4891802;29;20632;-89
2023/07/06 09:50:53;;;;;;;16.10;11.70;;;18.80;99.90;;;;;;4882630;29;20206;-91
2023/07/06 09:53:29;;;;;;;12.37;11.07;;;18.70;99.90;;;;;;4891792;29;20250;-89
2023/07/06 09:56:03;;;;;;;13.53;10.93;;;18.70;99.90;;;;;;4894732;29;20860;-89
2023/07/06 09:58:36;;;;;;;15.83;11.67;;;18.70;99.90;;;;;;4880819;29;20214;-88
2023/07/06 10:01:15;;;;;;;12.53;11.20;;;18.60;99.90;;;;;;4879716;29;20210;-90
2023/07/06 10:03:57;;;;;;;15.93;11.30;;;18.60;99.90;;;;;;4879915;29;20617;-90
2023/07/06 10:06:47;;;;;;;12.27;10.97;;;18.50;99.90;;;;;;4880371;29;20230;-89
2023/07/06 10:09:22;;;;;;;15.03;11.73;;;18.50;99.90;;;;;;4884203;29;20208;-89
2023/07/06 10:11:55;;;;;;;13.50;11.10;;;18.50;99.90;;;;;;4879728;29;20202;-89
2023/07/06 10:14:34;;;;;;;13.73;12.13;;;18.50;99.90;;;;;;4884861;29;20226;-88
2023/07/06 10:17:18;;;;;;;15.63;11.50;;;18.50;99.90;;;;;;4885618;29;20211;-90
2023/07/06 10:19:55;;;;;;;16.00;12.33;;;18.60;99.90;;;;;;4889431;29;20210;-88
2023/07/06 10:22:38;;;;;;;14.37;11.97;;;18.50;99.90;;;;;;4869978;29;20241;-88
2023/07/06 10:25:22;;;;;;;15.00;11.50;;;18.50;99.90;;;;;;4892136;29;20215;-89
2023/07/06 10:27:59;;;;;;;14.17;11.40;;;18.40;99.90;;;;;;4888647;29;20249;-89
2023/07/06 10:30:41;;;;;;;16.47;12.33;;;18.30;99.90;;;;;;4899436;29;20265;-88
2023/07/06 10:33:19;;;;;;;13.87;11.90;;;18.20;99.90;;;;;;4904073;29;20304;-88
2023/07/06 10:35:52;;;;;;;14.37;11.97;;;18.20;99.90;;;;;;4884327;29;20218;-89
2023/07/06 10:38:24;;;;;;;15.87;12.23;;;18.20;99.90;;;;;;4888729;29;20215;-89
2023/07/06 10:41:23;;;;;;;16.47;11.83;;;18.10;99.90;;;;;;4918253;29;20229;-90
2023/07/06 10:43:59;;;;;;;13.63;12.17;;;18.10;99.90;;;;;;4900908;29;20279;-88
2023/07/06 10:46:35;;;;;;;13.20;11.33;;;18.00;99.90;;;;;;4892377;29;20241;-89
2023/07/06 10:49:18;;;;;;;16.07;11.43;;;18.00;99.90;;;;;;4900709;29;20575;-90
2023/07/06 10:51:52;;;;;;;13.17;11.77;;;18.00;99.90;;;;;;4880367;29;20292;-89
2023/07/06 10:54:26;;;;;;;14.13;12.00;;;17.90;99.90;;;;;;4887420;29;20344;-90
2023/07/06 10:57:05;;;;;;;13.77;12.37;;;17.90;99.90;;;;;;4884049;29;20241;-89
2023/07/06 10:59:40;;;;;;;15.13;12.10;;;17.90;99.90;;;;;;4884249;29;20581;-91
2023/07/06 11:02:25;;;;;;;15.30;12.33;;;17.90;99.90;;;;;;4886766;29;20256;-88
2023/07/06 11:05:09;;;;;;;15.47;13.07;;;17.80;99.90;;;;;;4883456;29;20282;-88
2023/07/06 11:07:43;;;;;;;13.83;11.97;;;17.80;99.90;;;;;;4883955;29;20210;-87
2023/07/06 11:10:25;;;;;;;15.53;12.43;;;17.70;99.90;;;;;;4893671;29;20245;-89
2023/07/06 11:12:58;;;;;;;15.60;11.90;;;17.70;99.90;;;;;;4881255;29;20718;-88
2023/07/06 11:15:40;;;;;;;14.43;12.00;;;17.60;99.90;;;;;;4891396;29;20766;-90
2023/07/06 11:18:24;;;;;;;13.70;11.93;;;17.60;99.90;;;;;;4883406;29;20305;-90
2023/07/06 11:21:02;;;;;;;14.53;12.13;;;17.50;99.90;;;;;;4880281;29;20213;-89
2023/07/06 11:23:38;;;;;;;14.00;12.53;;;17.50;99.90;;;;;;4881105;29;20202;-87
2023/07/06 11:26:28;;;;;;;16.17;11.83;;;17.50;99.90;;;;;;4874211;29;20210;-89
2023/07/06 11:29:00;;;;;;;17.83;12.20;;;17.50;99.90;;;;;;4898916;29;20583;-88
2023/07/06 11:31:44;;;;;;;16.03;12.93;;;17.50;99.90;;;;;;4880237;29;20206;-88
2023/07/06 11:34:28;;;;;;;15.80;11.87;;;17.40;99.90;;;;;;4885099;29;20242;-89
2023/07/06 11:37:12;;;;;;;14.80;12.30;;;17.40;99.90;;;;;;4881983;29;20301;-88
2023/07/06 11:39:50;;;;;;;14.60;12.80;;;17.30;99.90;;;;;;4881643;29;20218;-89
2023/07/06 11:42:36;;;;;;;16.70;12.50;;;17.20;99.90;;;;;;4878745;29;20222;-90
2023/07/06 11:45:11;;;;;;;17.57;13.03;;;17.20;99.90;;;;;;4881385;29;20568;-89
2023/07/06 11:48:02;;;;;;;13.87;12.10;;;17.10;99.90;;;;;;4888710;29;20200;-89
2023/07/06 11:50:40;;;;;;;14.97;12.20;;;17.10;99.90;;;;;;4879705;29;20226;-89
2023/07/06 11:53:29;;;;;;;14.80;12.33;;;17.10;99.90;;;;;;4876891;29;20216;-89
2023/07/06 11:56:18;;;;;;;17.00;13.63;;;17.00;99.90;;;;;;4888344;29;20237;-90
2023/07/06 11:58:57;;;;;;;15.37;12.37;;;16.90;99.90;;;;;;4886944;29;20216;-89
2023/07/06 12:04:21;;;;;;;14.77;13.03;;;16.80;99.90;;;;;;4880668;29;20312;-90
2023/07/06 12:06:55;;;;;;;15.60;12.37;;;16.80;99.90;;;;;;4883415;29;20214;-89
2023/07/06 12:09:26;;;;;;;15.63;13.07;;;16.80;99.90;;;;;;4873001;29;20218;-90
2023/07/06 12:12:05;;;;;;;14.27;12.60;;;16.80;99.90;;;;;;4880035;29;20221;-90
2023/07/06 12:14:37;;;;;;;16.13;12.90;;;16.70;99.90;;;;;;4889185;29;20226;-89
2023/07/06 12:17:11;;;;;;;17.27;13.67;;;16.60;99.90;;;;;;4876667;29;20210;-88
2023/07/06 12:19:43;;;;;;;14.67;13.20;;;16.60;99.90;;;;;;4881832;29;20217;-89
2023/07/06 12:22:19;;;;;;;15.30;13.43;;;16.60;99.90;;;;;;4884358;29;20212;-88
2023/07/06 12:24:54;;;;;;;17.07;13.33;;;16.60;99.90;;;;;;4880998;29;20214;-88
2023/07/06 12:27:30;;;;;;;14.50;12.57;;;16.60;99.90;;;;;;4881297;29;20216;-89
2023/07/06 12:30:11;;;;;;;14.77;13.27;;;16.60;99.90;;;;;;4887368;29;20242;-89
2023/07/06 12:32:47;;;;;;;15.23;13.63;;;16.60;99.90;;;;;;4861917;29;20214;-88
2023/07/06 12:35:19;;;;;;;18.67;13.67;;;16.50;99.90;;;;;;4883193;29;20237;-89
2023/07/06 12:37:55;;;;;;;15.80;13.87;;;16.60;99.90;;;;;;4892505;29;20229;-89
2023/07/06 12:40:27;;;;;;;18.13;14.10;;;16.50;99.90;;;;;;4880434;29;20212;-89
2023/07/06 12:42:58;;;;;;;14.60;12.60;;;16.50;99.90;;;;;;4895483;29;20246;-89
2023/07/06 12:45:29;;;;;;;14.03;12.60;;;16.50;99.90;;;;;;4889085;29;20718;-89
2023/07/06 12:48:03;;;;;;;16.23;14.17;;;16.50;99.90;;;;;;4882740;29;20291;-88
2023/07/06 12:50:39;;;;;;;16.03;13.53;;;16.60;99.90;;;;;;4883949;29;20219;-90
2023/07/06 12:53:21;;;;;;;18.47;14.07;;;16.50;99.90;;;;;;4899430;29;20225;-89
2023/07/06 12:55:52;;;;;;;15.77;13.03;;;16.50;99.90;;;;;;4904621;29;20241;-90
2023/07/06 12:58:34;;;;;;;15.97;13.57;;;16.60;99.90;;;;;;4912697;29;20210;-89
2023/07/06 13:01:15;;;;;;;16.77;13.70;;;16.60;99.90;;;;;;4881879;29;20305;-89
2023/07/06 13:03:56;;;;;;;16.13;14.40;;;16.60;99.90;;;;;;4872670;29;20216;-88
2023/07/06 13:06:29;;;;;;;16.40;14.13;;;16.60;99.90;;;;;;4881901;29;20648;-90
2023/07/06 13:09:03;;;;;;;17.10;14.00;;;16.60;99.90;;;;;;4878197;29;20213;-89
2023/07/06 13:11:38;;;;;;;14.87;13.27;;;16.60;99.90;;;;;;4894369;29;20221;-89
2023/07/06 13:14:10;;;;;;;17.20;13.97;;;16.60;99.90;;;;;;4884928;29;20214;-90